sensor_id;sensor_type;location;lat;lon;timestamp;temperature;humidity
12049;DHT22;6085;49.452;8.502;2022-08-01T00:00:43;23.60;93.10
12049;DHT22;6085;49.452;8.502;2022-08-01T00:04:45;23.50;94.00
12049;DHT22;6085;49.452;8.502;2022-08-01T00:08:47;23.50;95.60
12049;DHT22;6085;49.452;8.502;2022-08-01T00:12:50;23.50;96.90
12049;DHT22;6085;49.452;8.502;2022-08-01T00:16:52;23.50;98.50
12049;DHT22;6085;49.452;8.502;2022-08-01T00:20:54;23.50;99.20
12049;DHT22;6085;49.452;8.502;2022-08-01T00:24:56;23.60;99.80
12049;DHT22;6085;49.452;8.502;2022-08-01T00:28:59;23.50;99.90
12049;DHT22;6085;49.452;8.502;2022-08-01T00:33:01;23.40;99.90
12049;DHT22;6085;49.452;8.502;2022-08-01T00:37:03;23.40;99.90
12049;DHT22;6085;49.452;8.502;2022-08-01T00:41:05;23.30;99.90
12049;DHT22;6085;49.452;8.502;2022-08-01T00:45:09;23.20;99.90
12049;DHT22;6085;49.452;8.502;2022-08-01T00:49:11;23.10;99.90
12049;DHT22;6085;49.452;8.502;2022-08-01T00:53:13;23.10;99.90
12049;DHT22;6085;49.452;8.502;2022-08-01T00:57:15;23.00;99.90
12049;DHT22;6085;49.452;8.502;2022-08-01T01:01:19;22.90;99.90
12049;DHT22;6085;49.452;8.502;2022-08-01T01:05:21;22.90;99.90
12049;DHT22;6085;49.452;8.502;2022-08-01T01:09:33;22.80;99.90
12049;DHT22;6085;49.452;8.502;2022-08-01T01:13:38;22.80;99.90
12049;DHT22;6085;49.452;8.502;2022-08-01T01:17:48;22.70;99.90
12049;DHT22;6085;49.452;8.502;2022-08-01T01:22:13;22.60;99.90
12049;DHT22;6085;49.452;8.502;2022-08-01T01:26:27;22.60;99.90
12049;DHT22;6085;49.452;8.502;2022-08-01T01:30:33;22.50;99.90
12049;DHT22;6085;49.452;8.502;2022-08-01T01:34:38;22.40;99.90
12049;DHT22;6085;49.452;8.502;2022-08-01T01:38:43;22.40;99.90
12049;DHT22;6085;49.452;8.502;2022-08-01T01:42:46;22.30;99.90
12049;DHT22;6085;49.452;8.502;2022-08-01T01:46:51;22.20;99.90
12049;DHT22;6085;49.452;8.502;2022-08-01T01:50:54;22.20;99.90
12049;DHT22;6085;49.452;8.502;2022-08-01T01:54:58;22.10;99.90
12049;DHT22;6085;49.452;8.502;2022-08-01T01:59:03;22.00;99.90
12049;DHT22;6085;49.452;8.502;2022-08-01T02:03:10;21.90;99.90
12049;DHT22;6085;49.452;8.502;2022-08-01T02:07:16;21.80;99.90
12049;DHT22;6085;49.452;8.502;2022-08-01T02:11:19;21.70;99.90
12049;DHT22;6085;49.452;8.502;2022-08-01T02:15:23;21.70;99.90
12049;DHT22;6085;49.452;8.502;2022-08-01T02:19:27;21.60;99.90
12049;DHT22;6085;49.452;8.502;2022-08-01T02:23:32;21.50;99.90
12049;DHT22;6085;49.452;8.502;2022-08-01T02:27:40;21.50;99.90
12049;DHT22;6085;49.452;8.502;2022-08-01T02:31:45;21.40;99.90
12049;DHT22;6085;49.452;8.502;2022-08-01T02:35:54;21.40;99.90
12049;DHT22;6085;49.452;8.502;2022-08-01T02:39:59;21.40;99.90
12049;DHT22;6085;49.452;8.502;2022-08-01T02:44:04;21.50;99.90
12049;DHT22;6085;49.452;8.502;2022-08-01T02:48:10;21.50;99.90
12049;DHT22;6085;49.452;8.502;2022-08-01T02:52:16;21.40;99.90
12049;DHT22;6085;49.452;8.502;2022-08-01T02:56:19;21.40;99.90
12049;DHT22;6085;49.452;8.502;2022-08-01T03:00:21;21.50;99.90
12049;DHT22;6085;49.452;8.502;2022-08-01T03:04:25;21.50;99.90
12049;DHT22;6085;49.452;8.502;2022-08-01T03:08:29;21.50;99.90
12049;DHT22;6085;49.452;8.502;2022-08-01T03:12:33;21.40;99.90
12049;DHT22;6085;49.452;8.502;2022-08-01T03:16:37;21.30;99.90
12049;DHT22;6085;49.452;8.502;2022-08-01T03:20:40;21.30;99.90
12049;DHT22;6085;49.452;8.502;2022-08-01T03:24:48;21.20;99.90
12049;DHT22;6085;49.452;8.502;2022-08-01T03:28:52;21.10;99.90
12049;DHT22;6085;49.452;8.502;2022-08-01T03:32:57;21.10;99.90
12049;DHT22;6085;49.452;8.502;2022-08-01T03:37:05;21.10;99.90
12049;DHT22;6085;49.452;8.502;2022-08-01T03:41:11;21.10;99.90
12049;DHT22;6085;49.452;8.502;2022-08-01T03:45:19;21.10;99.90
12049;DHT22;6085;49.452;8.502;2022-08-01T03:49:25;21.00;99.90
12049;DHT22;6085;49.452;8.502;2022-08-01T03:53:30;21.00;99.90
12049;DHT22;6085;49.452;8.502;2022-08-01T03:57:35;21.00;99.90
12049;DHT22;6085;49.452;8.502;2022-08-01T04:01:37;20.90;99.90
12049;DHT22;6085;49.452;8.502;2022-08-01T04:05:40;20.90;99.90
12049;DHT22;6085;49.452;8.502;2022-08-01T04:09:42;21.00;99.90
12049;DHT22;6085;49.452;8.502;2022-08-01T04:13:45;21.10;99.90
12049;DHT22;6085;49.452;8.502;2022-08-01T04:17:48;21.20;99.90
12049;DHT22;6085;49.452;8.502;2022-08-01T04:21:50;21.10;99.90
12049;DHT22;6085;49.452;8.502;2022-08-01T04:25:52;21.20;99.90
12049;DHT22;6085;49.452;8.502;2022-08-01T04:29:58;21.30;99.90
12049;DHT22;6085;49.452;8.502;2022-08-01T04:34:01;21.40;99.90
12049;DHT22;6085;49.452;8.502;2022-08-01T04:38:05;21.40;99.90
12049;DHT22;6085;49.452;8.502;2022-08-01T04:42:08;21.50;99.90
12049;DHT22;6085;49.452;8.502;2022-08-01T04:46:13;21.60;99.90
12049;DHT22;6085;49.452;8.502;2022-08-01T04:50:15;21.80;99.90
12049;DHT22;6085;49.452;8.502;2022-08-01T04:54:18;21.90;99.90
12049;DHT22;6085;49.452;8.502;2022-08-01T04:58:21;22.00;99.90
12049;DHT22;6085;49.452;8.502;2022-08-01T05:02:25;22.10;99.90
12049;DHT22;6085;49.452;8.502;2022-08-01T05:06:28;22.10;99.90
12049;DHT22;6085;49.452;8.502;2022-08-01T05:10:30;22.20;99.90
12049;DHT22;6085;49.452;8.502;2022-08-01T05:14:32;22.20;99.90
12049;DHT22;6085;49.452;8.502;2022-08-01T05:18:36;22.20;99.90
12049;DHT22;6085;49.452;8.502;2022-08-01T05:22:38;22.30;99.90
12049;DHT22;6085;49.452;8.502;2022-08-01T05:26:39;22.30;99.90
12049;DHT22;6085;49.452;8.502;2022-08-01T05:30:41;22.40;99.90
12049;DHT22;6085;49.452;8.502;2022-08-01T05:34:45;22.40;99.90
12049;DHT22;6085;49.452;8.502;2022-08-01T05:38:46;22.50;99.90
12049;DHT22;6085;49.452;8.502;2022-08-01T05:42:48;22.70;99.90
12049;DHT22;6085;49.452;8.502;2022-08-01T05:46:50;22.80;99.90
12049;DHT22;6085;49.452;8.502;2022-08-01T05:50:54;23.00;99.90
12049;DHT22;6085;49.452;8.502;2022-08-01T05:54:56;23.20;99.90
12049;DHT22;6085;49.452;8.502;2022-08-01T05:58:58;23.20;99.90
12049;DHT22;6085;49.452;8.502;2022-08-01T06:03:00;23.30;99.90
12049;DHT22;6085;49.452;8.502;2022-08-01T06:07:03;23.20;99.90
12049;DHT22;6085;49.452;8.502;2022-08-01T06:11:05;23.20;99.90
12049;DHT22;6085;49.452;8.502;2022-08-01T06:15:08;23.30;99.90
12049;DHT22;6085;49.452;8.502;2022-08-01T06:19:09;23.70;99.90
12049;DHT22;6085;49.452;8.502;2022-08-01T06:23:13;24.20;99.90
12049;DHT22;6085;49.452;8.502;2022-08-01T06:27:16;24.40;99.90
12049;DHT22;6085;49.452;8.502;2022-08-01T06:31:18;24.70;99.90
12049;DHT22;6085;49.452;8.502;2022-08-01T06:35:20;24.60;99.90
12049;DHT22;6085;49.452;8.502;2022-08-01T06:39:23;24.60;99.90
12049;DHT22;6085;49.452;8.502;2022-08-01T06:43:25;24.60;99.90
12049;DHT22;6085;49.452;8.502;2022-08-01T06:47:27;24.80;99.90
12049;DHT22;6085;49.452;8.502;2022-08-01T06:51:29;24.80;99.90
12049;DHT22;6085;49.452;8.502;2022-08-01T06:55:32;25.20;99.90
12049;DHT22;6085;49.452;8.502;2022-08-01T06:59:34;25.70;99.90
12049;DHT22;6085;49.452;8.502;2022-08-01T07:03:36;27.20;99.90
12049;DHT22;6085;49.452;8.502;2022-08-01T07:07:38;28.30;99.90
12049;DHT22;6085;49.452;8.502;2022-08-01T07:11:41;27.50;99.90
12049;DHT22;6085;49.452;8.502;2022-08-01T07:15:43;27.00;99.90
12049;DHT22;6085;49.452;8.502;2022-08-01T07:19:45;27.50;99.90
12049;DHT22;6085;49.452;8.502;2022-08-01T07:23:47;27.70;99.90
12049;DHT22;6085;49.452;8.502;2022-08-01T07:27:51;26.90;99.90
12049;DHT22;6085;49.452;8.502;2022-08-01T07:31:54;26.60;99.90
12049;DHT22;6085;49.452;8.502;2022-08-01T07:35:57;26.20;99.90
12049;DHT22;6085;49.452;8.502;2022-08-01T07:39:58;25.80;99.90
12049;DHT22;6085;49.452;8.502;2022-08-01T07:44:02;25.60;99.90
12049;DHT22;6085;49.452;8.502;2022-08-01T07:48:06;25.60;99.90
12049;DHT22;6085;49.452;8.502;2022-08-01T07:52:08;25.70;99.90
12049;DHT22;6085;49.452;8.502;2022-08-01T07:56:10;26.50;99.90
12049;DHT22;6085;49.452;8.502;2022-08-01T08:00:14;29.90;99.90
12049;DHT22;6085;49.452;8.502;2022-08-01T08:04:16;31.60;98.70
12049;DHT22;6085;49.452;8.502;2022-08-01T08:08:18;33.70;94.90
12049;DHT22;6085;49.452;8.502;2022-08-01T08:12:19;35.00;91.70
12049;DHT22;6085;49.452;8.502;2022-08-01T08:16:23;37.00;84.10
12049;DHT22;6085;49.452;8.502;2022-08-01T08:20:24;37.30;79.60
12049;DHT22;6085;49.452;8.502;2022-08-01T08:24:28;38.60;74.90
12049;DHT22;6085;49.452;8.502;2022-08-01T08:28:30;38.90;69.70
12049;DHT22;6085;49.452;8.502;2022-08-01T08:32:33;38.80;67.70
12049;DHT22;6085;49.452;8.502;2022-08-01T08:36:35;38.60;66.70
12049;DHT22;6085;49.452;8.502;2022-08-01T08:40:37;36.50;69.80
12049;DHT22;6085;49.452;8.502;2022-08-01T08:44:41;34.50;72.80
12049;DHT22;6085;49.452;8.502;2022-08-01T08:48:45;33.80;74.80
12049;DHT22;6085;49.452;8.502;2022-08-01T08:52:47;33.00;77.00
12049;DHT22;6085;49.452;8.502;2022-08-01T08:56:50;33.20;77.10
12049;DHT22;6085;49.452;8.502;2022-08-01T09:00:53;32.50;79.40
12049;DHT22;6085;49.452;8.502;2022-08-01T09:04:57;31.20;82.00
12049;DHT22;6085;49.452;8.502;2022-08-01T09:09:00;30.80;83.60
12049;DHT22;6085;49.452;8.502;2022-08-01T09:13:06;30.40;84.90
12049;DHT22;6085;49.452;8.502;2022-08-01T09:17:11;29.80;87.70
12049;DHT22;6085;49.452;8.502;2022-08-01T09:21:16;29.10;90.10
12049;DHT22;6085;49.452;8.502;2022-08-01T09:25:18;28.70;91.10
12049;DHT22;6085;49.452;8.502;2022-08-01T09:29:22;28.70;91.10
12049;DHT22;6085;49.452;8.502;2022-08-01T09:33:25;29.10;91.10
12049;DHT22;6085;49.452;8.502;2022-08-01T09:37:31;29.60;90.80
12049;DHT22;6085;49.452;8.502;2022-08-01T09:41:33;29.70;90.40
12049;DHT22;6085;49.452;8.502;2022-08-01T09:45:35;30.00;90.20
12049;DHT22;6085;49.452;8.502;2022-08-01T09:49:39;30.40;88.00
12049;DHT22;6085;49.452;8.502;2022-08-01T09:53:48;29.60;90.20
12049;DHT22;6085;49.452;8.502;2022-08-01T09:57:55;29.40;90.60
12049;DHT22;6085;49.452;8.502;2022-08-01T10:01:58;30.20;89.70
12049;DHT22;6085;49.452;8.502;2022-08-01T10:06:00;31.80;85.10
12049;DHT22;6085;49.452;8.502;2022-08-01T10:10:21;30.50;87.40
12049;DHT22;6085;49.452;8.502;2022-08-01T10:14:25;29.70;89.60
12049;DHT22;6085;49.452;8.502;2022-08-01T10:18:29;32.10;84.30
12049;DHT22;6085;49.452;8.502;2022-08-01T10:22:33;32.50;82.60
12049;DHT22;6085;49.452;8.502;2022-08-01T10:26:39;33.40;79.30
12049;DHT22;6085;49.452;8.502;2022-08-01T10:30:42;33.30;79.80
12049;DHT22;6085;49.452;8.502;2022-08-01T10:34:44;32.50;81.70
12049;DHT22;6085;49.452;8.502;2022-08-01T10:38:47;32.40;81.90
12049;DHT22;6085;49.452;8.502;2022-08-01T10:42:51;31.70;83.40
12049;DHT22;6085;49.452;8.502;2022-08-01T10:46:56;30.80;85.40
12049;DHT22;6085;49.452;8.502;2022-08-01T10:51:01;30.90;86.50
12049;DHT22;6085;49.452;8.502;2022-08-01T10:55:04;30.70;86.00
12049;DHT22;6085;49.452;8.502;2022-08-01T10:59:08;30.40;87.30
12049;DHT22;6085;49.452;8.502;2022-08-01T11:03:10;30.90;86.60
12049;DHT22;6085;49.452;8.502;2022-08-01T11:07:17;31.30;85.70
12049;DHT22;6085;49.452;8.502;2022-08-01T11:11:21;31.30;85.20
12049;DHT22;6085;49.452;8.502;2022-08-01T11:15:25;30.50;86.60
12049;DHT22;6085;49.452;8.502;2022-08-01T11:20:03;30.80;86.10
12049;DHT22;6085;49.452;8.502;2022-08-01T11:24:05;31.40;85.10
12049;DHT22;6085;49.452;8.502;2022-08-01T11:28:18;31.00;85.90
12049;DHT22;6085;49.452;8.502;2022-08-01T11:32:27;29.80;88.10
12049;DHT22;6085;49.452;8.502;2022-08-01T11:36:29;29.00;90.30
12049;DHT22;6085;49.452;8.502;2022-08-01T11:40:31;29.70;90.00
12049;DHT22;6085;49.452;8.502;2022-08-01T11:44:48;30.70;87.40
12049;DHT22;6085;49.452;8.502;2022-08-01T11:49:26;30.80;85.80
12049;DHT22;6085;49.452;8.502;2022-08-01T11:53:29;30.80;85.90
12049;DHT22;6085;49.452;8.502;2022-08-01T11:57:32;30.10;87.70
12049;DHT22;6085;49.452;8.502;2022-08-01T12:01:35;29.80;89.50
12049;DHT22;6085;49.452;8.502;2022-08-01T12:05:38;30.10;89.80
12049;DHT22;6085;49.452;8.502;2022-08-01T12:09:45;30.10;88.20
12049;DHT22;6085;49.452;8.502;2022-08-01T12:13:48;30.20;87.60
12049;DHT22;6085;49.452;8.502;2022-08-01T12:17:56;30.60;86.50
12049;DHT22;6085;49.452;8.502;2022-08-01T12:22:13;30.50;86.80
12049;DHT22;6085;49.452;8.502;2022-08-01T12:26:15;30.20;88.00
12049;DHT22;6085;49.452;8.502;2022-08-01T12:30:18;30.80;88.10
12049;DHT22;6085;49.452;8.502;2022-08-01T12:34:26;31.60;85.20
12049;DHT22;6085;49.452;8.502;2022-08-01T12:38:30;31.50;84.80
12049;DHT22;6085;49.452;8.502;2022-08-01T12:42:36;31.60;83.40
12049;DHT22;6085;49.452;8.502;2022-08-01T12:46:39;31.00;84.90
12049;DHT22;6085;49.452;8.502;2022-08-01T12:50:43;30.70;87.00
12049;DHT22;6085;49.452;8.502;2022-08-01T12:55:08;30.80;86.80
12049;DHT22;6085;49.452;8.502;2022-08-01T12:59:21;30.80;84.80
12049;DHT22;6085;49.452;8.502;2022-08-01T13:03:25;30.50;85.70
12049;DHT22;6085;49.452;8.502;2022-08-01T13:07:35;30.10;86.60
12049;DHT22;6085;49.452;8.502;2022-08-01T13:11:39;30.40;86.40
12049;DHT22;6085;49.452;8.502;2022-08-01T13:15:42;30.90;83.60
12049;DHT22;6085;49.452;8.502;2022-08-01T13:19:45;30.90;83.90
12049;DHT22;6085;49.452;8.502;2022-08-01T13:24:03;30.50;84.70
12049;DHT22;6085;49.452;8.502;2022-08-01T13:28:18;30.10;85.60
12049;DHT22;6085;49.452;8.502;2022-08-01T13:32:21;29.80;85.50
12049;DHT22;6085;49.452;8.502;2022-08-01T13:36:24;29.40;86.70
12049;DHT22;6085;49.452;8.502;2022-08-01T13:40:28;29.40;86.20
12049;DHT22;6085;49.452;8.502;2022-08-01T13:44:31;29.70;87.50
12049;DHT22;6085;49.452;8.502;2022-08-01T13:48:33;30.10;86.40
12049;DHT22;6085;49.452;8.502;2022-08-01T13:52:35;30.20;86.10
12049;DHT22;6085;49.452;8.502;2022-08-01T13:56:37;30.40;85.30
12049;DHT22;6085;49.452;8.502;2022-08-01T14:00:41;30.50;84.10
12049;DHT22;6085;49.452;8.502;2022-08-01T14:04:42;30.40;83.70
12049;DHT22;6085;49.452;8.502;2022-08-01T14:08:45;30.50;85.20
12049;DHT22;6085;49.452;8.502;2022-08-01T14:12:47;30.20;85.00
12049;DHT22;6085;49.452;8.502;2022-08-01T14:16:51;29.90;85.50
12049;DHT22;6085;49.452;8.502;2022-08-01T14:20:53;29.70;85.70
12049;DHT22;6085;49.452;8.502;2022-08-01T14:24:55;29.50;86.90
12049;DHT22;6085;49.452;8.502;2022-08-01T14:28:56;29.50;86.60
12049;DHT22;6085;49.452;8.502;2022-08-01T14:33:00;29.80;86.60
12049;DHT22;6085;49.452;8.502;2022-08-01T14:37:02;30.20;86.30
12049;DHT22;6085;49.452;8.502;2022-08-01T14:41:03;30.20;85.00
12049;DHT22;6085;49.452;8.502;2022-08-01T14:45:06;30.00;85.70
12049;DHT22;6085;49.452;8.502;2022-08-01T14:49:11;29.90;85.10
12049;DHT22;6085;49.452;8.502;2022-08-01T14:53:13;29.60;86.00
12049;DHT22;6085;49.452;8.502;2022-08-01T14:57:14;29.40;86.30
12049;DHT22;6085;49.452;8.502;2022-08-01T15:01:18;29.60;86.20
12049;DHT22;6085;49.452;8.502;2022-08-01T15:05:22;29.60;85.40
12049;DHT22;6085;49.452;8.502;2022-08-01T15:09:23;29.60;85.30
12049;DHT22;6085;49.452;8.502;2022-08-01T15:13:25;29.50;85.30
12049;DHT22;6085;49.452;8.502;2022-08-01T15:17:29;29.50;85.00
12049;DHT22;6085;49.452;8.502;2022-08-01T15:21:33;29.30;84.60
12049;DHT22;6085;49.452;8.502;2022-08-01T15:25:35;29.30;84.20
12049;DHT22;6085;49.452;8.502;2022-08-01T15:29:37;29.40;84.10
12049;DHT22;6085;49.452;8.502;2022-08-01T15:33:39;29.20;84.70
12049;DHT22;6085;49.452;8.502;2022-08-01T15:37:42;29.20;84.80
12049;DHT22;6085;49.452;8.502;2022-08-01T15:41:44;29.20;84.00
12049;DHT22;6085;49.452;8.502;2022-08-01T15:45:46;29.20;84.40
12049;DHT22;6085;49.452;8.502;2022-08-01T15:49:48;29.20;84.40
12049;DHT22;6085;49.452;8.502;2022-08-01T15:53:52;29.20;84.50
12049;DHT22;6085;49.452;8.502;2022-08-01T15:57:54;29.00;85.00
12049;DHT22;6085;49.452;8.502;2022-08-01T16:01:55;29.10;84.80
12049;DHT22;6085;49.452;8.502;2022-08-01T16:05:57;29.20;86.10
12049;DHT22;6085;49.452;8.502;2022-08-01T16:10:01;29.10;85.90
12049;DHT22;6085;49.452;8.502;2022-08-01T16:14:02;29.00;86.60
12049;DHT22;6085;49.452;8.502;2022-08-01T16:18:07;28.90;86.60
12049;DHT22;6085;49.452;8.502;2022-08-01T16:22:09;28.80;87.40
12049;DHT22;6085;49.452;8.502;2022-08-01T16:26:12;28.60;87.90
12049;DHT22;6085;49.452;8.502;2022-08-01T16:30:14;28.40;88.90
12049;DHT22;6085;49.452;8.502;2022-08-01T16:34:16;28.30;89.00
12049;DHT22;6085;49.452;8.502;2022-08-01T16:38:19;28.20;89.40
12049;DHT22;6085;49.452;8.502;2022-08-01T16:42:24;28.10;89.80
12049;DHT22;6085;49.452;8.502;2022-08-01T16:46:26;27.90;89.20
12049;DHT22;6085;49.452;8.502;2022-08-01T16:50:28;27.90;90.00
12049;DHT22;6085;49.452;8.502;2022-08-01T16:54:30;27.80;89.90
12049;DHT22;6085;49.452;8.502;2022-08-01T16:58:33;27.80;90.10
12049;DHT22;6085;49.452;8.502;2022-08-01T17:02:37;27.70;90.60
12049;DHT22;6085;49.452;8.502;2022-08-01T17:06:39;27.70;90.30
12049;DHT22;6085;49.452;8.502;2022-08-01T17:10:41;27.80;90.10
12049;DHT22;6085;49.452;8.502;2022-08-01T17:14:44;27.70;90.30
12049;DHT22;6085;49.452;8.502;2022-08-01T17:18:46;27.60;90.50
12049;DHT22;6085;49.452;8.502;2022-08-01T17:22:49;27.50;90.70
12049;DHT22;6085;49.452;8.502;2022-08-01T17:26:50;27.50;90.70
12049;DHT22;6085;49.452;8.502;2022-08-01T17:30:54;27.40;91.10
12049;DHT22;6085;49.452;8.502;2022-08-01T17:34:56;27.30;91.10
12049;DHT22;6085;49.452;8.502;2022-08-01T17:38:58;27.10;91.60
12049;DHT22;6085;49.452;8.502;2022-08-01T17:43:00;27.10;91.60
12049;DHT22;6085;49.452;8.502;2022-08-01T17:47:03;27.00;91.80
12049;DHT22;6085;49.452;8.502;2022-08-01T17:51:05;26.90;91.90
12049;DHT22;6085;49.452;8.502;2022-08-01T17:55:08;26.80;92.00
12049;DHT22;6085;49.452;8.502;2022-08-01T17:59:09;26.80;92.20
12049;DHT22;6085;49.452;8.502;2022-08-01T18:03:13;26.70;92.60
12049;DHT22;6085;49.452;8.502;2022-08-01T18:07:17;26.60;93.30
12049;DHT22;6085;49.452;8.502;2022-08-01T18:11:19;26.60;93.90
12049;DHT22;6085;49.452;8.502;2022-08-01T18:15:21;26.50;94.20
12049;DHT22;6085;49.452;8.502;2022-08-01T18:19:25;26.40;94.40
12049;DHT22;6085;49.452;8.502;2022-08-01T18:23:27;26.20;94.70
12049;DHT22;6085;49.452;8.502;2022-08-01T18:27:29;26.20;95.10
12049;DHT22;6085;49.452;8.502;2022-08-01T18:31:31;26.10;95.40
12049;DHT22;6085;49.452;8.502;2022-08-01T18:35:34;26.00;95.70
12049;DHT22;6085;49.452;8.502;2022-08-01T18:39:36;25.80;96.00
12049;DHT22;6085;49.452;8.502;2022-08-01T18:43:38;25.80;96.50
12049;DHT22;6085;49.452;8.502;2022-08-01T18:47:40;25.70;97.30
12049;DHT22;6085;49.452;8.502;2022-08-01T18:51:44;25.60;97.60
12049;DHT22;6085;49.452;8.502;2022-08-01T18:55:46;25.50;97.90
12049;DHT22;6085;49.452;8.502;2022-08-01T18:59:48;25.40;98.30
12049;DHT22;6085;49.452;8.502;2022-08-01T19:03:50;25.30;98.50
12049;DHT22;6085;49.452;8.502;2022-08-01T19:07:53;25.20;99.00
12049;DHT22;6085;49.452;8.502;2022-08-01T19:11:55;25.10;99.20
12049;DHT22;6085;49.452;8.502;2022-08-01T19:15:58;25.00;99.60
12049;DHT22;6085;49.452;8.502;2022-08-01T19:20:00;24.90;99.90
12049;DHT22;6085;49.452;8.502;2022-08-01T19:24:04;24.80;99.90
12049;DHT22;6085;49.452;8.502;2022-08-01T19:28:22;24.70;99.90
12049;DHT22;6085;49.452;8.502;2022-08-01T19:32:24;24.70;99.90
12049;DHT22;6085;49.452;8.502;2022-08-01T19:36:27;24.70;99.90
12049;DHT22;6085;49.452;8.502;2022-08-01T19:40:31;24.60;99.90
12049;DHT22;6085;49.452;8.502;2022-08-01T19:44:33;24.60;99.90
12049;DHT22;6085;49.452;8.502;2022-08-01T19:48:35;24.70;99.90
12049;DHT22;6085;49.452;8.502;2022-08-01T19:52:41;24.70;99.90
12049;DHT22;6085;49.452;8.502;2022-08-01T19:56:47;24.70;99.90
12049;DHT22;6085;49.452;8.502;2022-08-01T20:00:49;24.60;99.90
12049;DHT22;6085;49.452;8.502;2022-08-01T20:04:52;24.50;99.90
12049;DHT22;6085;49.452;8.502;2022-08-01T20:08:54;24.40;99.90
12049;DHT22;6085;49.452;8.502;2022-08-01T20:12:58;24.30;99.90
12049;DHT22;6085;49.452;8.502;2022-08-01T20:17:00;24.20;99.90
12049;DHT22;6085;49.452;8.502;2022-08-01T20:21:02;24.10;99.90
12049;DHT22;6085;49.452;8.502;2022-08-01T20:25:07;24.00;99.90
12049;DHT22;6085;49.452;8.502;2022-08-01T20:29:12;23.90;99.90
12049;DHT22;6085;49.452;8.502;2022-08-01T20:33:16;23.80;99.90
12049;DHT22;6085;49.452;8.502;2022-08-01T20:37:19;23.70;99.90
12049;DHT22;6085;49.452;8.502;2022-08-01T20:41:23;23.70;99.90
12049;DHT22;6085;49.452;8.502;2022-08-01T20:45:27;23.60;99.90
12049;DHT22;6085;49.452;8.502;2022-08-01T20:49:30;23.50;99.90
12049;DHT22;6085;49.452;8.502;2022-08-01T20:53:34;23.40;99.90
12049;DHT22;6085;49.452;8.502;2022-08-01T20:57:40;23.40;99.90
12049;DHT22;6085;49.452;8.502;2022-08-01T21:01:47;23.30;99.90
12049;DHT22;6085;49.452;8.502;2022-08-01T21:05:54;23.20;99.90
12049;DHT22;6085;49.452;8.502;2022-08-01T21:10:03;23.20;99.90
12049;DHT22;6085;49.452;8.502;2022-08-01T21:14:09;23.10;99.90
12049;DHT22;6085;49.452;8.502;2022-08-01T21:18:14;23.10;99.90
12049;DHT22;6085;49.452;8.502;2022-08-01T21:22:21;23.10;99.90
12049;DHT22;6085;49.452;8.502;2022-08-01T21:26:24;23.20;99.90
12049;DHT22;6085;49.452;8.502;2022-08-01T21:30:28;23.30;99.90
12049;DHT22;6085;49.452;8.502;2022-08-01T21:34:32;23.40;99.90
12049;DHT22;6085;49.452;8.502;2022-08-01T21:38:35;23.50;99.90
12049;DHT22;6085;49.452;8.502;2022-08-01T21:42:41;23.50;99.90
12049;DHT22;6085;49.452;8.502;2022-08-01T21:46:44;23.60;99.90
12049;DHT22;6085;49.452;8.502;2022-08-01T21:50:54;23.60;99.90
12049;DHT22;6085;49.452;8.502;2022-08-01T21:55:03;23.50;99.90
12049;DHT22;6085;49.452;8.502;2022-08-01T21:59:12;23.40;99.90
12049;DHT22;6085;49.452;8.502;2022-08-01T22:03:22;23.30;99.90
12049;DHT22;6085;49.452;8.502;2022-08-01T22:07:26;23.20;99.90
12049;DHT22;6085;49.452;8.502;2022-08-01T22:11:32;23.10;99.90
12049;DHT22;6085;49.452;8.502;2022-08-01T22:15:35;23.10;99.90
12049;DHT22;6085;49.452;8.502;2022-08-01T22:19:37;23.00;99.90
12049;DHT22;6085;49.452;8.502;2022-08-01T22:23:40;22.90;99.90
12049;DHT22;6085;49.452;8.502;2022-08-01T22:27:43;22.80;99.90
12049;DHT22;6085;49.452;8.502;2022-08-01T22:31:46;22.80;99.90
12049;DHT22;6085;49.452;8.502;2022-08-01T22:35:50;22.80;99.90
12049;DHT22;6085;49.452;8.502;2022-08-01T22:39:58;22.70;99.90
12049;DHT22;6085;49.452;8.502;2022-08-01T22:44:03;22.70;99.90
12049;DHT22;6085;49.452;8.502;2022-08-01T22:48:13;22.70;99.90
12049;DHT22;6085;49.452;8.502;2022-08-01T22:52:17;22.60;99.90
12049;DHT22;6085;49.452;8.502;2022-08-01T22:56:21;22.50;99.90
12049;DHT22;6085;49.452;8.502;2022-08-01T23:00:27;22.40;99.90
12049;DHT22;6085;49.452;8.502;2022-08-01T23:04:33;22.20;99.90
12049;DHT22;6085;49.452;8.502;2022-08-01T23:08:39;22.10;99.90
12049;DHT22;6085;49.452;8.502;2022-08-01T23:12:43;22.00;99.90
12049;DHT22;6085;49.452;8.502;2022-08-01T23:16:48;21.90;99.90
12049;DHT22;6085;49.452;8.502;2022-08-01T23:20:52;21.80;99.90
12049;DHT22;6085;49.452;8.502;2022-08-01T23:24:57;21.80;99.90
12049;DHT22;6085;49.452;8.502;2022-08-01T23:29:00;21.70;99.90
12049;DHT22;6085;49.452;8.502;2022-08-01T23:33:02;21.70;99.90
12049;DHT22;6085;49.452;8.502;2022-08-01T23:37:04;21.60;99.90
12049;DHT22;6085;49.452;8.502;2022-08-01T23:41:06;21.70;99.90
12049;DHT22;6085;49.452;8.502;2022-08-01T23:45:15;21.70;99.90
12049;DHT22;6085;49.452;8.502;2022-08-01T23:49:17;21.60;99.90
12049;DHT22;6085;49.452;8.502;2022-08-01T23:53:19;21.50;99.90
12049;DHT22;6085;49.452;8.502;2022-08-01T23:57:21;21.40;99.90
